»·PEaware :: N648CR KSUN-KCOE

N648CR :: KSUN-KCOE

FLIGHT INFORMATION

Flight Status: Arrived
Operator: Privately registered:
United States
More flights under this callsign
Pilot: James D. (19799)
Aircraft: CESSNA 172 SKYHAWK
(C172)
More flights by this aircraft type
Origin: KSUN Friedman Meml
United States
Destination: KCOE Coeur d'Alene
United States
More flights between these airports :: More routes between these airports
Route: +
File this flight plan on PilotEdge
Remarks:
Altitude:
(Current/Filed)
0ft
Speed:
(Current/Filed)
0kts
Departed: 10-Feb-19 12:32 PM
Arrived: 10-Feb-19 01:22 PM
Distance/Time
Traveled:
277nm/0:49
Distance/Time
To Go:
Arrived

Flight Plot

Page will automatically refresh every two minutes.

Flight plan parsing failed; only flown route is shown


Map Options




Map Legend


Flown Route
Filed Route
Departure Airport
Arrival Airport
Navaid (VOR, NDB)
Fix

Horizontal Profiles

Position Reports

Time Latitude Longitude Heading Altitude Ground
Speed
10-Feb-19 12:30 45.998735 -116.147952 349 10483ft 141kts
10-Feb-19 12:31 46.036802 -116.161707 348 10483ft 141kts
10-Feb-19 12:32 46.074975 -116.175667 348 10484ft 141kts
10-Feb-19 12:33 46.113166 -116.189680 348 10480ft 141kts
10-Feb-19 12:34 46.151104 -116.203617 348 10480ft 140kts
10-Feb-19 12:35 46.189050 -116.217585 348 10480ft 140kts
10-Feb-19 12:36 46.226939 -116.231541 348 10481ft 140kts
10-Feb-19 12:37 46.264851 -116.245531 348 10481ft 140kts
10-Feb-19 12:38 46.302804 -116.259535 348 10481ft 140kts
10-Feb-19 12:39 46.340855 -116.273634 348 10481ft 140kts
10-Feb-19 12:40 46.378682 -116.287655 348 10481ft 140kts
10-Feb-19 12:41 46.414302 -116.300873 348 10481ft 141kts
10-Feb-19 12:42 46.453154 -116.315299 348 10371ft 143kts
10-Feb-19 12:43 46.491333 -116.329517 348 10372ft 141kts
10-Feb-19 12:44 46.529325 -116.343677 348 10372ft 141kts
10-Feb-19 12:45 46.567381 -116.357886 348 10372ft 141kts
10-Feb-19 12:46 46.594619 -116.368109 348 10565ft 126kts
10-Feb-19 12:47 46.632021 -116.382074 348 10501ft 146kts
10-Feb-19 12:48 46.670064 -116.396313 348 10500ft 138kts
10-Feb-19 12:49 46.707328 -116.410289 349 10501ft 138kts
10-Feb-19 12:50 46.744402 -116.424219 348 10501ft 137kts
10-Feb-19 12:51 46.781431 -116.438155 348 10501ft 138kts
10-Feb-19 12:52 46.818511 -116.452145 348 10501ft 138kts
10-Feb-19 12:53 46.855684 -116.466159 348 10502ft 138kts
10-Feb-19 12:54 46.892799 -116.480190 348 10502ft 138kts
10-Feb-19 12:55 46.929940 -116.494242 348 10502ft 138kts
10-Feb-19 12:56 46.967004 -116.508289 348 10502ft 138kts
10-Feb-19 12:57 47.004233 -116.522427 348 10502ft 138kts
10-Feb-19 12:58 47.041448 -116.536575 348 10502ft 138kts
10-Feb-19 12:59 47.078669 -116.550744 348 10503ft 138kts
10-Feb-19 13:00 47.115852 -116.564878 348 10499ft 138kts
10-Feb-19 13:01 47.152790 -116.579010 348 10499ft 137kts
10-Feb-19 13:02 47.189707 -116.593129 348 10499ft 137kts
10-Feb-19 13:03 47.226668 -116.607286 348 10500ft 137kts
10-Feb-19 13:04 47.263754 -116.621500 348 10500ft 137kts
10-Feb-19 13:05 47.300674 -116.635685 348 10500ft 137kts
10-Feb-19 13:06 47.337687 -116.650002 348 10500ft 137kts
10-Feb-19 13:07 47.374596 -116.664226 348 10498ft 137kts
10-Feb-19 13:08 47.411490 -116.678449 348 10466ft 136kts
10-Feb-19 13:09 47.449601 -116.693106 348 9661ft 144kts
10-Feb-19 13:10 47.477890 -116.704041 348 9076ft 145kts
10-Feb-19 13:11 47.516758 -116.719088 348 8274ft 145kts
10-Feb-19 13:12 47.555304 -116.734037 348 7466ft 141kts
10-Feb-19 13:13 47.592247 -116.748405 348 6658ft 130kts
10-Feb-19 13:14 47.623149 -116.773667 328 5849ft 126kts
10-Feb-19 13:15 47.652378 -116.801322 328 5054ft 125kts
10-Feb-19 13:16 47.683781 -116.815141 349 4387ft 115kts
10-Feb-19 13:17 47.711093 -116.831997 341 4191ft 102kts
10-Feb-19 13:18 47.739635 -116.841704 5 3503ft 105kts
10-Feb-19 13:19 47.753787 -116.835295 47 3087ft 81kts
10-Feb-19 13:20 47.768058 -116.819518 31 2304ft 51kts
10-Feb-19 13:21 47.772502 -116.814575 117 2307ft 2kts
10-Feb-19 13:22 47.772745 -116.813381 111 2309ft 3kts
10-Feb-19 13:23 47.772848 -116.813115 31 2310ft 0kts
10-Feb-19 13:24 47.772854 -116.813110 31 2310ft 0kts
10-Feb-19 13:25 47.772854 -116.813110 31 2310ft 0kts

Navigation Log

Ident Type
Flight plan parsing failed, navigation log unavailable